createdAt,value
2022-10-14T00:00:50.231Z,97052.56
2022-10-14T00:01:51.834Z,97052.28
2022-10-14T00:02:53.409Z,97048.41
2022-10-14T00:03:55.429Z,97051.19
2022-10-14T00:04:57.016Z,97054.28
2022-10-14T00:05:58.554Z,97046.97
2022-10-14T00:07:00.137Z,97052.44
2022-10-14T00:08:01.685Z,97053.16
2022-10-14T00:09:06.778Z,97045.28
2022-10-14T00:10:08.598Z,97048.28
2022-10-14T00:11:17.128Z,97047.00
2022-10-14T00:12:18.655Z,97051.13
2022-10-14T00:13:20.206Z,97054.09
2022-10-14T00:14:22.253Z,97045.16
2022-10-14T00:15:23.784Z,97046.59
2022-10-14T00:16:28.699Z,97043.88
2022-10-14T00:17:30.266Z,97044.66
2022-10-14T00:18:31.991Z,97053.97
2022-10-14T00:19:33.555Z,97047.72
2022-10-14T00:20:35.779Z,97050.84
2022-10-14T00:21:39.096Z,97052.72
2022-10-14T00:22:40.627Z,97060.72
2022-10-14T00:23:42.786Z,97059.44
2022-10-14T00:24:44.297Z,97055.25
2022-10-14T00:25:45.812Z,97056.94
2022-10-14T00:26:47.354Z,97052.03
2022-10-14T00:27:48.914Z,97054.09
2022-10-14T00:28:51.380Z,97055.69
2022-10-14T00:29:53.083Z,97057.16
2022-10-14T00:31:00.294Z,97052.53
2022-10-14T00:32:01.799Z,97058.72
2022-10-14T00:33:03.468Z,97050.28
2022-10-14T00:34:05.040Z,97051.13
2022-10-14T00:35:06.819Z,97049.25
2022-10-14T00:36:09.292Z,97044.28
2022-10-14T00:37:10.876Z,97043.50
2022-10-14T00:38:12.411Z,97039.66
2022-10-14T00:39:13.968Z,97035.91
2022-10-14T00:40:15.567Z,97036.34
2022-10-14T00:41:23.136Z,97043.94
2022-10-14T00:42:24.893Z,97044.13
2022-10-14T00:43:27.138Z,97043.25
2022-10-14T00:44:28.599Z,97032.34
2022-10-14T00:45:30.133Z,97035.00
2022-10-14T00:46:35.049Z,97035.63
2022-10-14T00:47:36.733Z,97032.09
2022-10-14T00:48:38.386Z,97026.97
2022-10-14T00:49:42.773Z,97033.94
2022-10-14T00:50:47.088Z,97030.41
2022-10-14T00:51:56.479Z,97032.09
2022-10-14T00:52:59.132Z,97035.09
2022-10-14T00:54:00.705Z,97035.38
2022-10-14T00:55:06.625Z,97026.97
2022-10-14T00:56:10.829Z,97030.97
2022-10-14T00:57:13.067Z,97033.44
2022-10-14T00:58:15.695Z,97029.66
2022-10-14T00:59:17.800Z,97029.81
2022-10-14T01:00:20.699Z,97028.41
2022-10-14T01:01:22.345Z,97028.47
2022-10-14T01:02:24.028Z,97028.94
2022-10-14T01:03:25.595Z,97028.22
2022-10-14T01:04:27.294Z,97032.50
2022-10-14T01:05:36.464Z,97032.50
2022-10-14T01:06:51.256Z,97015.56
2022-10-14T01:07:58.553Z,97017.22
2022-10-14T01:09:19.725Z,97017.25
2022-10-14T01:10:33.135Z,97016.53
2022-10-14T01:11:45.600Z,97020.47
2022-10-14T01:13:05.792Z,97014.00
2022-10-14T01:14:49.185Z,97016.03
2022-10-14T01:15:53.841Z,97019.09
2022-10-14T01:17:02.617Z,97019.44
2022-10-14T01:18:38.578Z,97015.97
2022-10-14T01:19:48.887Z,97007.50
2022-10-14T01:21:16.550Z,97014.47
2022-10-14T01:22:31.248Z,97009.13
2022-10-14T01:23:50.960Z,96998.34
2022-10-14T01:25:18.841Z,97009.16
2022-10-14T01:26:39.300Z,97002.75
2022-10-14T01:27:54.306Z,96999.13
2022-10-14T01:29:01.919Z,96997.78
2022-10-14T01:30:09.375Z,96995.50
2022-10-14T01:31:18.278Z,96986.22
2022-10-14T01:32:41.414Z,96993.94
2022-10-14T01:33:46.142Z,96997.06
2022-10-14T01:34:55.976Z,96987.09
2022-10-14T01:36:03.321Z,97001.34
2022-10-14T01:37:13.301Z,96990.53
2022-10-14T01:38:24.216Z,96991.72
2022-10-14T01:39:31.568Z,96990.22
2022-10-14T01:40:43.636Z,96993.22
2022-10-14T01:42:08.660Z,96997.31
2022-10-14T01:43:13.699Z,96986.72
2022-10-14T01:44:18.782Z,96987.09
2022-10-14T01:45:22.806Z,96995.19
2022-10-14T01:46:27.150Z,96989.06
2022-10-14T01:47:33.119Z,96989.84
2022-10-14T01:48:38.906Z,96985.56
2022-10-14T01:49:46.687Z,96983.13
2022-10-14T01:50:52.299Z,96976.78
2022-10-14T01:52:02.905Z,96982.84
2022-10-14T01:53:09.205Z,96990.09
2022-10-14T01:54:19.340Z,96983.50
2022-10-14T01:55:26.204Z,96981.94
2022-10-14T01:56:29.911Z,96985.06
2022-10-14T01:57:35.443Z,96987.47
2022-10-14T01:58:39.649Z,96983.34
2022-10-14T01:59:42.597Z,96980.34
2022-10-14T02:00:44.287Z,96984.19
2022-10-14T02:01:45.871Z,96973.44
2022-10-14T02:02:48.175Z,96978.50
2022-10-14T02:03:50.343Z,96983.06
2022-10-14T02:04:52.381Z,96974.81
2022-10-14T02:06:08.266Z,96979.38
2022-10-14T02:07:24.873Z,96973.81
2022-10-14T02:08:44.274Z,96973.13
2022-10-14T02:10:03.436Z,96974.13
2022-10-14T02:11:17.414Z,96968.56
2022-10-14T02:12:36.827Z,96976.25
2022-10-14T02:13:56.539Z,96973.47
2022-10-14T02:15:21.971Z,96973.97
2022-10-14T02:16:26.443Z,96977.09
2022-10-14T02:17:35.391Z,96964.75
2022-10-14T02:19:02.647Z,96964.75
2022-10-14T02:20:13.217Z,96968.16
2022-10-14T02:21:31.427Z,96965.47
2022-10-14T02:22:38.890Z,96960.63
2022-10-14T02:23:46.245Z,96969.56
2022-10-14T02:24:53.693Z,96968.44
2022-10-14T02:25:56.018Z,96966.59
2022-10-14T02:27:03.608Z,96965.88
2022-10-14T02:28:08.199Z,96962.47
2022-10-14T02:29:09.856Z,96968.31
2022-10-14T02:30:11.971Z,96966.06
2022-10-14T02:31:16.627Z,96967.28
2022-10-14T02:32:22.023Z,96966.56
2022-10-14T02:33:33.154Z,96958.91
2022-10-14T02:34:37.008Z,96955.06
2022-10-14T02:35:41.464Z,96953.06
2022-10-14T02:36:45.084Z,96954.63
2022-10-14T02:37:48.630Z,96965.88
2022-10-14T02:38:52.538Z,96956.13
2022-10-14T02:40:36.000Z,96953.78
2022-10-14T02:41:38.827Z,96958.34
2022-10-14T02:42:40.881Z,96957.06
2022-10-14T02:43:43.848Z,96956.34
2022-10-14T02:44:54.057Z,96952.09
2022-10-14T02:46:01.803Z,96946.50
2022-10-14T02:47:03.718Z,96950.13
2022-10-14T02:48:05.797Z,96942.59
2022-10-14T02:49:07.429Z,96943.16
2022-10-14T02:50:09.476Z,96944.91
2022-10-14T02:51:10.987Z,96940.13
2022-10-14T02:52:12.524Z,96945.53
2022-10-14T02:53:16.109Z,96938.84
2022-10-14T02:54:17.640Z,96935.28
2022-10-14T02:55:19.185Z,96938.28
2022-10-14T02:56:20.685Z,96937.75
2022-10-14T02:57:22.219Z,96941.75
2022-10-14T02:58:23.733Z,96945.25
2022-10-14T02:59:25.325Z,96947.53
2022-10-14T03:00:27.043Z,96941.75
2022-10-14T03:01:29.468Z,96942.63
2022-10-14T03:02:33.179Z,96942.19
2022-10-14T03:03:35.062Z,96946.75
2022-10-14T03:04:36.833Z,96949.09
2022-10-14T03:05:38.357Z,96952.53
2022-10-14T03:06:39.950Z,96951.00
2022-10-14T03:07:41.461Z,96948.44
2022-10-14T03:08:42.977Z,96949.06
2022-10-14T03:09:44.580Z,96945.91
2022-10-14T03:10:48.041Z,96945.34
2022-10-14T03:11:49.567Z,96940.22
2022-10-14T03:12:51.095Z,96950.13
2022-10-14T03:13:52.635Z,96956.28
2022-10-14T03:14:54.334Z,96957.63
2022-10-14T03:15:55.957Z,96958.06
2022-10-14T03:16:57.519Z,96953.28
2022-10-14T03:17:59.020Z,96954.41
2022-10-14T03:19:00.519Z,96951.13
2022-10-14T03:20:03.127Z,96950.59
2022-10-14T03:21:04.813Z,96952.75
2022-10-14T03:22:06.335Z,96954.81
2022-10-14T03:23:07.858Z,96955.69
2022-10-14T03:24:09.938Z,96944.19
2022-10-14T03:25:11.540Z,96945.47
2022-10-14T03:26:14.089Z,96938.44
2022-10-14T03:27:15.840Z,96941.94
2022-10-14T03:28:17.618Z,96941.94
2022-10-14T03:29:19.168Z,96946.63
2022-10-14T03:30:20.684Z,96945.91
2022-10-14T03:31:22.216Z,96942.78
2022-10-14T03:32:24.140Z,96945.84
2022-10-14T03:33:26.425Z,96940.00
2022-10-14T03:34:28.296Z,96945.34
2022-10-14T03:35:29.856Z,96946.03
2022-10-14T03:36:31.446Z,96943.31
2022-10-14T03:37:33.146Z,96945.34
2022-10-14T03:38:34.675Z,96938.09
2022-10-14T03:39:36.183Z,96942.09
2022-10-14T03:40:37.771Z,96948.34
2022-10-14T03:41:39.717Z,96939.19
2022-10-14T03:42:42.695Z,96942.66
2022-10-14T03:43:44.298Z,96938.56
2022-10-14T03:44:46.304Z,96946.81
2022-10-14T03:45:47.963Z,96944.38
2022-10-14T03:46:49.501Z,96941.53
2022-10-14T03:47:51.039Z,96945.31
2022-10-14T03:48:53.201Z,96946.69
2022-10-14T03:49:54.735Z,96946.25
2022-10-14T03:50:56.271Z,96945.91
2022-10-14T03:51:58.179Z,96948.00
2022-10-14T03:52:59.695Z,96949.13
2022-10-14T03:54:01.244Z,96944.50
2022-10-14T03:55:03.129Z,96942.94
2022-10-14T03:56:05.059Z,96944.91
2022-10-14T03:57:06.646Z,96957.47
2022-10-14T03:58:09.373Z,96948.25
2022-10-14T03:59:10.909Z,96946.84
2022-10-14T04:00:13.304Z,96951.38
2022-10-14T04:01:14.952Z,96953.75
2022-10-14T04:02:16.510Z,96955.19
2022-10-14T04:03:18.068Z,96953.56
2022-10-14T04:04:19.610Z,96944.88
2022-10-14T04:05:21.112Z,96950.88
2022-10-14T04:06:22.714Z,96942.50
2022-10-14T04:07:24.360Z,96946.78
2022-10-14T04:08:25.978Z,96937.97
2022-10-14T04:09:29.030Z,96937.31
2022-10-14T04:10:31.147Z,96940.25
2022-10-14T04:11:32.699Z,96931.59
2022-10-14T04:12:34.229Z,96938.50
2022-10-14T04:13:36.756Z,96930.00
2022-10-14T04:14:38.305Z,96926.19
2022-10-14T04:15:39.840Z,96929.31
2022-10-14T04:16:43.956Z,96926.34
2022-10-14T04:17:47.697Z,96928.41
2022-10-14T04:18:49.218Z,96935.78
2022-10-14T04:19:51.202Z,96935.63
2022-10-14T04:20:52.729Z,96937.31
2022-10-14T04:21:54.270Z,96938.88
2022-10-14T04:22:58.900Z,96930.53
2022-10-14T04:24:03.699Z,96934.94
2022-10-14T04:25:08.554Z,96932.81
2022-10-14T04:26:10.372Z,96939.50
2022-10-14T04:27:11.976Z,96929.28
2022-10-14T04:28:13.540Z,96921.22
2022-10-14T04:29:15.202Z,96925.06
2022-10-14T04:30:16.811Z,96930.88
2022-10-14T04:31:18.342Z,96927.47
2022-10-14T04:32:20.767Z,96924.41
2022-10-14T04:33:22.481Z,96919.88
2022-10-14T04:34:23.984Z,96925.34
2022-10-14T04:35:25.545Z,96931.53
2022-10-14T04:36:27.075Z,96924.63
2022-10-14T04:37:29.776Z,96923.94
2022-10-14T04:38:31.773Z,96920.53
2022-10-14T04:39:33.393Z,96920.97
2022-10-14T04:40:34.930Z,96922.53
2022-10-14T04:41:36.437Z,96921.06
2022-10-14T04:42:38.008Z,96919.56
2022-10-14T04:43:39.533Z,96915.72
2022-10-14T04:44:41.030Z,96917.75
2022-10-14T04:45:42.720Z,96921.28
2022-10-14T04:46:44.263Z,96922.91
2022-10-14T04:47:48.578Z,96921.00
2022-10-14T04:48:50.433Z,96912.91
2022-10-14T04:49:52.004Z,96916.28
2022-10-14T04:50:54.434Z,96919.78
2022-10-14T04:51:56.001Z,96918.59
2022-10-14T04:52:57.869Z,96920.50
2022-10-14T04:54:00.388Z,96920.00
2022-10-14T04:55:03.531Z,96918.03
2022-10-14T04:56:05.889Z,96923.41
2022-10-14T04:57:07.755Z,96930.72
2022-10-14T04:58:09.546Z,96932.63
2022-10-14T04:59:12.061Z,96926.13
2022-10-14T05:00:14.793Z,96929.34
2022-10-14T05:01:17.657Z,96923.06
2022-10-14T05:02:19.491Z,96920.84
2022-10-14T05:03:21.301Z,96922.16
2022-10-14T05:04:22.867Z,96919.38
2022-10-14T05:05:24.384Z,96919.13
2022-10-14T05:06:25.941Z,96918.38
2022-10-14T05:07:27.490Z,96926.72
2022-10-14T05:08:29.061Z,96918.47
2022-10-14T05:09:30.609Z,96921.22
2022-10-14T05:10:32.488Z,96917.50
2022-10-14T05:11:34.556Z,96914.97
2022-10-14T05:12:37.853Z,96916.56
2022-10-14T05:13:39.465Z,96922.13
2022-10-14T05:14:41.005Z,96921.69
2022-10-14T05:15:42.544Z,96925.50
2022-10-14T05:16:44.089Z,96930.19
2022-10-14T05:17:45.937Z,96920.44
2022-10-14T05:18:47.470Z,96925.16
2022-10-14T05:19:49.101Z,96923.75
2022-10-14T05:20:50.720Z,96922.19
2022-10-14T05:21:52.277Z,96923.59
2022-10-14T05:22:53.829Z,96930.28
2022-10-14T05:23:55.594Z,96925.50
2022-10-14T05:24:57.131Z,96927.59
2022-10-14T05:25:58.664Z,96927.19
2022-10-14T05:27:00.436Z,96926.81
2022-10-14T05:28:02.040Z,96928.22
2022-10-14T05:29:04.509Z,96925.25
2022-10-14T05:30:06.637Z,96931.94
2022-10-14T05:31:08.229Z,96918.38
2022-10-14T05:32:09.869Z,96929.50
2022-10-14T05:33:12.050Z,96922.13
2022-10-14T05:34:13.717Z,96928.97
2022-10-14T05:35:15.296Z,96923.78
2022-10-14T05:36:16.827Z,96929.25
2022-10-14T05:37:18.374Z,96921.63
2022-10-14T05:38:19.888Z,96931.00
2022-10-14T05:39:21.615Z,96933.22
2022-10-14T05:40:24.117Z,96938.34
2022-10-14T05:41:26.543Z,96940.00
2022-10-14T05:42:28.132Z,96937.84
2022-10-14T05:43:32.710Z,96936.88
2022-10-14T05:44:34.709Z,96932.78
2022-10-14T05:45:36.253Z,96933.66
2022-10-14T05:46:37.985Z,96933.25
2022-10-14T05:47:39.572Z,96933.56
2022-10-14T05:48:41.124Z,96932.78
2022-10-14T05:49:42.844Z,96938.25
2022-10-14T05:50:44.396Z,96937.91
2022-10-14T05:51:46.004Z,96935.22
2022-10-14T05:52:47.814Z,96934.97
2022-10-14T05:53:49.502Z,96936.25
2022-10-14T05:54:51.046Z,96932.53
2022-10-14T05:55:52.658Z,96934.25
2022-10-14T05:56:54.257Z,96937.72
2022-10-14T05:57:56.679Z,96936.75
2022-10-14T05:58:58.275Z,96939.34
2022-10-14T06:00:01.516Z,96937.25
2022-10-14T06:01:05.341Z,96934.28
2022-10-14T06:02:08.717Z,96939.41
2022-10-14T06:03:13.217Z,96942.88
2022-10-14T06:04:18.754Z,96941.38
2022-10-14T06:05:20.308Z,96939.25
2022-10-14T06:06:26.585Z,96938.47
2022-10-14T06:07:30.322Z,96939.41
2022-10-14T06:08:31.932Z,96940.00
2022-10-14T06:09:33.605Z,96947.53
2022-10-14T06:10:35.728Z,96952.38
2022-10-14T06:11:37.355Z,96953.81
2022-10-14T06:12:39.348Z,96954.22
2022-10-14T06:13:41.111Z,96958.94
2022-10-14T06:14:42.657Z,96947.41
2022-10-14T06:15:44.273Z,96951.38
2022-10-14T06:16:45.894Z,96951.09
2022-10-14T06:17:47.449Z,96948.09
2022-10-14T06:18:54.105Z,96957.81
2022-10-14T06:19:56.105Z,96950.94
2022-10-14T06:20:57.719Z,96957.97
2022-10-14T06:21:59.740Z,96953.41
2022-10-14T06:23:02.364Z,96957.72
2022-10-14T06:24:04.057Z,96969.75
2022-10-14T06:25:06.025Z,96958.69
2022-10-14T06:26:09.774Z,96965.00
2022-10-14T06:27:11.323Z,96956.19
2022-10-14T06:28:13.056Z,96960.81
2022-10-14T06:29:15.271Z,96950.78
2022-10-14T06:30:16.869Z,96955.41
2022-10-14T06:31:18.492Z,96953.09
2022-10-14T06:32:20.461Z,96955.41
2022-10-14T06:33:22.741Z,96947.59
2022-10-14T06:34:24.798Z,96947.94
2022-10-14T06:35:26.360Z,96952.38
2022-10-14T06:36:28.016Z,96952.06
2022-10-14T06:37:29.549Z,96955.63
2022-10-14T06:38:31.638Z,96953.94
2022-10-14T06:39:33.185Z,96956.34
2022-10-14T06:40:36.100Z,96951.78
2022-10-14T06:41:37.859Z,96952.63
2022-10-14T06:42:39.994Z,96957.28
2022-10-14T06:43:41.516Z,96954.59
2022-10-14T06:44:43.078Z,96953.94
2022-10-14T06:45:44.618Z,96962.31
2022-10-14T06:46:46.271Z,96959.03
2022-10-14T06:47:47.825Z,96953.72
2022-10-14T06:48:50.428Z,96949.13
2022-10-14T06:49:52.172Z,96959.19
2022-10-14T06:50:53.693Z,96953.84
2022-10-14T06:51:55.235Z,96955.13
2022-10-14T06:52:56.915Z,96950.22
2022-10-14T06:53:58.513Z,96951.34
2022-10-14T06:55:00.103Z,96958.59
2022-10-14T06:56:06.395Z,96957.78
2022-10-14T06:57:07.958Z,96960.63
2022-10-14T06:58:10.026Z,96966.09
2022-10-14T06:59:11.929Z,96956.38
2022-10-14T07:00:13.794Z,96956.72
2022-10-14T07:01:15.360Z,96957.06
2022-10-14T07:02:16.966Z,96959.28
2022-10-14T07:03:18.796Z,96963.47
2022-10-14T07:04:20.319Z,96959.47
2022-10-14T07:05:21.942Z,96965.53
2022-10-14T07:06:23.787Z,96960.34
2022-10-14T07:07:25.361Z,96959.78
2022-10-14T07:08:26.872Z,96964.59
2022-10-14T07:09:29.185Z,96959.75
2022-10-14T07:10:30.725Z,96961.81
2022-10-14T07:11:32.377Z,96960.00
2022-10-14T07:12:34.020Z,96955.88
2022-10-14T07:13:35.658Z,96956.00
2022-10-14T07:14:37.188Z,96958.41
2022-10-14T07:15:39.142Z,96956.22
2022-10-14T07:16:43.817Z,96963.72
2022-10-14T07:17:45.365Z,96968.38
2022-10-14T07:18:46.908Z,96966.81
2022-10-14T07:19:48.507Z,96964.50
2022-10-14T07:20:50.086Z,96966.47
2022-10-14T07:21:51.679Z,96961.91
2022-10-14T07:22:56.914Z,96964.31
2022-10-14T07:23:58.506Z,96968.25
2022-10-14T07:25:00.033Z,96968.22
2022-10-14T07:26:01.730Z,96955.97
2022-10-14T07:28:05.932Z,96964.50
2022-10-14T07:29:07.986Z,96965.25
2022-10-14T07:30:12.595Z,96963.81
2022-10-14T07:31:17.109Z,96961.44
2022-10-14T07:32:18.665Z,96962.53
2022-10-14T07:33:20.221Z,96961.41
2022-10-14T07:34:21.830Z,96968.47
2022-10-14T07:35:23.442Z,96961.59
2022-10-14T07:36:25.020Z,96960.31
2022-10-14T07:37:26.556Z,96963.06
2022-10-14T07:38:28.102Z,96958.94
2022-10-14T07:39:29.863Z,96961.16
2022-10-14T07:40:31.457Z,96957.66
2022-10-14T07:41:33.883Z,96958.50
2022-10-14T07:42:35.449Z,96959.97
2022-10-14T07:43:36.993Z,96952.22
2022-10-14T07:44:39.898Z,96952.66
2022-10-14T07:45:44.016Z,96955.25
2022-10-14T07:46:45.713Z,96954.88
2022-10-14T07:47:49.450Z,96959.00
2022-10-14T07:48:57.321Z,96952.88
2022-10-14T07:50:02.679Z,96951.28
2022-10-14T07:51:04.260Z,96962.25
2022-10-14T07:52:05.955Z,96948.28
2022-10-14T07:53:07.600Z,96955.16
2022-10-14T07:54:13.882Z,96948.88
2022-10-14T07:55:15.538Z,96955.88
2022-10-14T07:56:17.148Z,96950.47
2022-10-14T07:57:18.982Z,96955.88
2022-10-14T07:58:26.672Z,96952.88
2022-10-14T07:59:28.235Z,96961.25
2022-10-14T08:00:29.788Z,96951.19
2022-10-14T08:01:31.399Z,96955.06
2022-10-14T08:02:33.012Z,96951.25
2022-10-14T08:03:34.553Z,96952.66
2022-10-14T08:04:36.405Z,96957.25
2022-10-14T08:05:38.993Z,96955.31
2022-10-14T08:06:41.027Z,96953.41
2022-10-14T08:07:42.611Z,96953.34
2022-10-14T08:08:44.909Z,96957.66
2022-10-14T08:09:47.407Z,96954.28
2022-10-14T08:10:49.235Z,96949.31
2022-10-14T08:11:50.796Z,96955.50
2022-10-14T08:12:52.323Z,96948.25
2022-10-14T08:13:55.161Z,96959.09
2022-10-14T08:14:57.878Z,96957.66
2022-10-14T08:15:59.786Z,96954.63
2022-10-14T08:17:01.504Z,96955.09
2022-10-14T08:18:03.252Z,96947.16
2022-10-14T08:19:14.119Z,96954.09
2022-10-14T08:20:16.476Z,96958.59
2022-10-14T08:21:19.157Z,96955.03
2022-10-14T08:22:21.245Z,96951.88
2022-10-14T08:23:22.973Z,96955.25
2022-10-14T08:24:24.535Z,96954.00
2022-10-14T08:25:27.222Z,96948.88
2022-10-14T08:26:31.310Z,96959.00
2022-10-14T08:27:32.849Z,96950.53
2022-10-14T08:28:34.428Z,96949.66
2022-10-14T08:29:35.997Z,96957.72
2022-10-14T08:30:37.596Z,96959.28
2022-10-14T08:31:39.201Z,96956.88
2022-10-14T08:32:40.723Z,96960.22
2022-10-14T08:33:42.356Z,96956.41
2022-10-14T08:34:43.955Z,96954.88
2022-10-14T08:35:48.145Z,96960.28
2022-10-14T08:36:51.912Z,96951.03
2022-10-14T08:38:00.120Z,96961.84
2022-10-14T08:39:01.828Z,96953.75
2022-10-14T08:40:04.617Z,96961.00
2022-10-14T08:41:12.198Z,96957.88
2022-10-14T08:42:35.015Z,96960.19
2022-10-14T08:43:48.403Z,96955.56
2022-10-14T08:45:17.695Z,96961.00
2022-10-14T08:46:25.140Z,96960.56
2022-10-14T08:47:36.684Z,96958.31
2022-10-14T08:48:39.358Z,96962.94
2022-10-14T08:50:04.070Z,96963.28
2022-10-14T08:51:13.380Z,96966.41
2022-10-14T08:52:25.483Z,96968.09
2022-10-14T08:53:34.195Z,96965.09
2022-10-14T08:54:41.583Z,96968.09
2022-10-14T08:55:55.609Z,96965.47
2022-10-14T08:56:58.871Z,96970.09
2022-10-14T08:58:10.558Z,96965.47
2022-10-14T08:59:16.115Z,96966.63
2022-10-14T09:00:21.067Z,96962.00
2022-10-14T09:01:24.720Z,96955.03
2022-10-14T09:02:48.101Z,96956.53
2022-10-14T09:03:54.150Z,96968.09
2022-10-14T09:04:56.967Z,96964.16
2022-10-14T09:06:02.205Z,96954.09
2022-10-14T09:07:04.777Z,96958.84
2022-10-14T09:08:08.219Z,96955.47
2022-10-14T09:09:39.543Z,96962.41
2022-10-14T09:10:42.568Z,96962.84
2022-10-14T09:11:49.021Z,96968.22
2022-10-14T09:12:53.634Z,96957.56
2022-10-14T09:13:59.708Z,96954.78
2022-10-14T09:15:13.573Z,96961.44
2022-10-14T09:16:27.830Z,96959.09
2022-10-14T09:17:38.367Z,96957.56
2022-10-14T09:18:45.389Z,96959.06
2022-10-14T09:20:00.293Z,96952.16
2022-10-14T09:21:04.147Z,96960.66
2022-10-14T09:22:12.965Z,96957.97
2022-10-14T09:23:20.395Z,96960.66
2022-10-14T09:24:37.119Z,96956.19
2022-10-14T09:25:43.337Z,96957.06
2022-10-14T09:26:51.159Z,96958.66
2022-10-14T09:27:52.874Z,96958.59
2022-10-14T09:28:55.031Z,96959.38
2022-10-14T09:30:10.252Z,96960.22
2022-10-14T09:31:13.930Z,96957.97
2022-10-14T09:32:35.713Z,96953.38
2022-10-14T09:33:42.596Z,96955.00
2022-10-14T09:34:50.664Z,96951.09
2022-10-14T09:35:52.301Z,96951.09
2022-10-14T09:36:53.929Z,96952.97
2022-10-14T09:37:55.633Z,96951.88
2022-10-14T09:39:02.282Z,96951.22
2022-10-14T09:40:15.843Z,96945.84
2022-10-14T09:41:19.106Z,96959.03
2022-10-14T09:42:26.655Z,96946.75
2022-10-14T09:43:29.791Z,96956.84
2022-10-14T09:44:31.406Z,96955.34
2022-10-14T09:45:59.724Z,96962.25
2022-10-14T09:47:12.267Z,96949.94
2022-10-14T09:48:37.861Z,96954.56
2022-10-14T09:49:45.803Z,96956.13
2022-10-14T09:50:53.643Z,96953.44
2022-10-14T09:51:57.038Z,96950.88
2022-10-14T09:53:09.246Z,96953.16
2022-10-14T09:54:28.167Z,96950.03
2022-10-14T09:55:30.822Z,96942.34
2022-10-14T09:56:39.080Z,96947.75
2022-10-14T09:57:44.568Z,96953.94
2022-10-14T09:58:53.632Z,96953.50
2022-10-14T10:00:00.638Z,96946.19
2022-10-14T10:01:02.808Z,96944.69
2022-10-14T10:02:05.534Z,96937.41
2022-10-14T10:03:07.630Z,96940.19
2022-10-14T10:04:30.169Z,96939.44
2022-10-14T10:05:34.789Z,96941.75
2022-10-14T10:06:52.004Z,96942.50
2022-10-14T10:08:05.713Z,96934.03
2022-10-14T10:09:18.984Z,96939.47
2022-10-14T10:10:22.582Z,96931.75
2022-10-14T10:11:38.798Z,96937.16
2022-10-14T10:12:46.366Z,96932.19
2022-10-14T10:13:48.241Z,96931.75
2022-10-14T10:14:59.216Z,96927.84
2022-10-14T10:16:03.987Z,96924.38
2022-10-14T10:17:08.845Z,96928.66
2022-10-14T10:18:19.833Z,96925.28
2022-10-14T10:19:43.087Z,96920.31
2022-10-14T10:21:02.238Z,96923.78
2022-10-14T10:22:34.151Z,96922.63
2022-10-14T10:23:36.466Z,96916.06
2022-10-14T10:24:38.017Z,96921.88
2022-10-14T10:25:39.638Z,96918.75
2022-10-14T10:26:41.252Z,96915.63
2022-10-14T10:27:48.888Z,96914.50
2022-10-14T10:28:50.497Z,96913.75
2022-10-14T10:29:52.667Z,96909.91
2022-10-14T10:31:12.593Z,96911.81
2022-10-14T10:32:26.927Z,96906.53
2022-10-14T10:33:42.780Z,96908.13
2022-10-14T10:35:01.756Z,96904.34
2022-10-14T10:36:10.095Z,96902.06
2022-10-14T10:37:26.689Z,96903.63
2022-10-14T10:38:40.030Z,96902.81
2022-10-14T10:40:12.605Z,96894.75
2022-10-14T10:41:26.160Z,96893.63
2022-10-14T10:43:03.677Z,96889.34
2022-10-14T10:44:59.966Z,96893.66
2022-10-14T10:46:24.223Z,96893.81
2022-10-14T10:47:26.607Z,96888.44
2022-10-14T10:48:42.673Z,96885.69
2022-10-14T10:49:50.342Z,96887.56
2022-10-14T10:51:05.477Z,96881.81
2022-10-14T10:52:30.735Z,96883.72
2022-10-14T10:53:41.137Z,96879.53
2022-10-14T10:55:02.977Z,96872.25
2022-10-14T10:56:04.620Z,96872.72
2022-10-14T10:57:25.169Z,96873.47
2022-10-14T10:58:48.472Z,96876.97
2022-10-14T10:59:56.371Z,96880.50
2022-10-14T11:01:02.020Z,96873.16
2022-10-14T11:02:22.246Z,96869.25
2022-10-14T11:03:24.606Z,96875.41
2022-10-14T11:04:54.832Z,96868.09
2022-10-14T11:06:00.701Z,96871.56
2022-10-14T11:07:38.112Z,96866.13
2022-10-14T11:09:11.871Z,96864.50
2022-10-14T11:10:48.449Z,96868.44
2022-10-14T11:12:12.843Z,96863.81
2022-10-14T11:13:47.675Z,96864.66
2022-10-14T11:15:11.774Z,96858.06
2022-10-14T11:16:21.583Z,96857.59
2022-10-14T11:19:14.755Z,96846.28
2022-10-14T11:20:31.675Z,96845.84
2022-10-14T11:21:45.387Z,96849.69
2022-10-14T11:22:50.878Z,96847.38
2022-10-14T11:24:05.541Z,96838.84
2022-10-14T11:25:27.439Z,96842.28
2022-10-14T11:26:53.386Z,96841.44
2022-10-14T11:28:13.166Z,96837.94
2022-10-14T11:29:38.162Z,96839.56
2022-10-14T11:31:04.808Z,96837.28
2022-10-14T11:32:06.497Z,96830.34
2022-10-14T11:33:10.692Z,96837.69
2022-10-14T11:34:18.210Z,96834.56
2022-10-14T11:35:45.556Z,96827.13
2022-10-14T11:37:04.050Z,96829.41
2022-10-14T11:38:39.367Z,96822.78
2022-10-14T11:39:52.580Z,96825.47
2022-10-14T11:41:50.110Z,96826.25
2022-10-14T11:43:26.127Z,96820.84
2022-10-14T11:44:42.810Z,96820.50
2022-10-14T11:46:00.353Z,96818.97
2022-10-14T11:47:09.997Z,96817.19
2022-10-14T11:48:24.140Z,96823.75
2022-10-14T11:49:30.266Z,96813.00
2022-10-14T11:50:40.639Z,96813.31
2022-10-14T11:51:55.422Z,96814.91
2022-10-14T11:53:24.679Z,96814.91
2022-10-14T11:54:49.080Z,96814.91
2022-10-14T11:56:31.025Z,96820.66
2022-10-14T11:57:42.015Z,96821.13
2022-10-14T11:58:45.560Z,96816.84
2022-10-14T12:00:14.707Z,96815.66
2022-10-14T12:01:20.583Z,96819.09
2022-10-14T12:02:52.376Z,96820.22
2022-10-14T12:04:03.732Z,96813.72
2022-10-14T12:05:34.369Z,96813.31
2022-10-14T12:06:42.051Z,96824.53
2022-10-14T12:07:56.074Z,96811.78
2022-10-14T12:09:08.893Z,96810.28
2022-10-14T12:10:22.887Z,96812.66
2022-10-14T12:11:30.081Z,96811.91
2022-10-14T12:12:34.510Z,96808.47
2022-10-14T12:13:44.616Z,96808.47
2022-10-14T12:14:59.201Z,96815.03
2022-10-14T12:16:03.010Z,96812.31
2022-10-14T12:17:14.708Z,96812.69
2022-10-14T12:18:22.874Z,96803.41
2022-10-14T12:19:29.488Z,96816.25
2022-10-14T12:20:37.952Z,96810.50
2022-10-14T12:22:03.094Z,96816.34
2022-10-14T12:23:08.393Z,96811.31
2022-10-14T12:24:17.109Z,96810.53
2022-10-14T12:25:24.164Z,96812.09
2022-10-14T12:26:25.757Z,96812.84
2022-10-14T12:27:28.999Z,96820.56
2022-10-14T12:28:31.120Z,96822.50
2022-10-14T12:29:36.292Z,96820.56
2022-10-14T12:30:41.373Z,96820.56
2022-10-14T12:32:08.508Z,96820.66
2022-10-14T12:33:13.303Z,96820.69
2022-10-14T12:34:18.873Z,96817.97
2022-10-14T12:35:50.809Z,96821.53
2022-10-14T12:36:52.386Z,96820.06
2022-10-14T12:39:17.874Z,96817.78
2022-10-14T12:40:24.962Z,96819.00
2022-10-14T12:41:39.615Z,96815.50
2022-10-14T12:42:44.116Z,96818.94
2022-10-14T12:43:59.634Z,96818.59
2022-10-14T12:45:14.380Z,96813.94
2022-10-14T12:46:16.001Z,96813.84
2022-10-14T12:47:31.970Z,96815.34
2022-10-14T12:48:35.893Z,96813.44
2022-10-14T12:49:37.922Z,96816.13
2022-10-14T12:50:43.869Z,96816.50
2022-10-14T12:52:06.142Z,96816.09
2022-10-14T12:53:29.794Z,96812.22
2022-10-14T12:54:33.006Z,96811.47
2022-10-14T12:55:49.676Z,96824.63
2022-10-14T12:57:05.110Z,96816.81
2022-10-14T12:58:06.781Z,96817.59
2022-10-14T12:59:19.871Z,96811.81
2022-10-14T13:00:29.112Z,96811.81
2022-10-14T13:01:35.303Z,96806.78
2022-10-14T13:02:45.366Z,96813.72
2022-10-14T13:05:26.269Z,96807.91
2022-10-14T13:06:35.749Z,96814.81